sensor_id;sensor_type;location;lat;lon;timestamp;P1;durP1;ratioP1;P2;durP2;ratioP2
43945;SDS011;29599;51.196;4.428;2022-09-16T00:00:14;4.57;;;1.15;;
43945;SDS011;29599;51.196;4.428;2022-09-16T00:02:40;3.35;;;1.10;;
43945;SDS011;29599;51.196;4.428;2022-09-16T00:05:06;6.70;;;1.20;;
43945;SDS011;29599;51.196;4.428;2022-09-16T00:07:32;5.07;;;1.05;;
43945;SDS011;29599;51.196;4.428;2022-09-16T00:09:58;9.68;;;1.10;;
43945;SDS011;29599;51.196;4.428;2022-09-16T00:12:24;6.75;;;1.05;;
43945;SDS011;29599;51.196;4.428;2022-09-16T00:14:53;3.25;;;1.17;;
43945;SDS011;29599;51.196;4.428;2022-09-16T00:17:19;7.32;;;1.00;;
43945;SDS011;29599;51.196;4.428;2022-09-16T00:19:45;9.43;;;1.50;;
43945;SDS011;29599;51.196;4.428;2022-09-16T00:22:11;5.13;;;0.80;;
43945;SDS011;29599;51.196;4.428;2022-09-16T00:24:37;7.22;;;1.00;;
43945;SDS011;29599;51.196;4.428;2022-09-16T00:27:02;9.27;;;1.55;;
43945;SDS011;29599;51.196;4.428;2022-09-16T00:29:28;6.38;;;1.30;;
43945;SDS011;29599;51.196;4.428;2022-09-16T00:31:54;3.30;;;1.08;;
43945;SDS011;29599;51.196;4.428;2022-09-16T00:34:20;3.60;;;1.00;;
43945;SDS011;29599;51.196;4.428;2022-09-16T00:36:45;6.53;;;1.02;;
43945;SDS011;29599;51.196;4.428;2022-09-16T00:39:11;6.82;;;1.70;;
43945;SDS011;29599;51.196;4.428;2022-09-16T00:41:36;4.85;;;1.13;;
43945;SDS011;29599;51.196;4.428;2022-09-16T00:44:04;3.05;;;1.10;;
43945;SDS011;29599;51.196;4.428;2022-09-16T00:46:39;7.47;;;1.05;;
43945;SDS011;29599;51.196;4.428;2022-09-16T00:49:11;5.80;;;1.20;;
43945;SDS011;29599;51.196;4.428;2022-09-16T00:51:39;9.27;;;1.10;;
43945;SDS011;29599;51.196;4.428;2022-09-16T00:54:06;7.15;;;1.23;;
43945;SDS011;29599;51.196;4.428;2022-09-16T00:56:35;4.35;;;1.20;;
43945;SDS011;29599;51.196;4.428;2022-09-16T00:59:20;5.32;;;1.38;;
43945;SDS011;29599;51.196;4.428;2022-09-16T01:01:54;8.35;;;1.83;;
43945;SDS011;29599;51.196;4.428;2022-09-16T01:04:25;8.43;;;1.35;;
43945;SDS011;29599;51.196;4.428;2022-09-16T01:06:53;6.22;;;1.02;;
43945;SDS011;29599;51.196;4.428;2022-09-16T01:09:21;5.85;;;1.02;;
43945;SDS011;29599;51.196;4.428;2022-09-16T01:11:47;7.60;;;1.05;;
43945;SDS011;29599;51.196;4.428;2022-09-16T01:14:13;6.57;;;1.20;;
43945;SDS011;29599;51.196;4.428;2022-09-16T01:22:38;2.77;;;1.23;;
43945;SDS011;29599;51.196;4.428;2022-09-16T01:30:37;5.95;;;1.30;;
43945;SDS011;29599;51.196;4.428;2022-09-16T01:38:55;7.63;;;1.15;;
43945;SDS011;29599;51.196;4.428;2022-09-16T01:41:56;8.75;;;1.00;;
43945;SDS011;29599;51.196;4.428;2022-09-16T01:47:06;12.45;;;1.20;;
43945;SDS011;29599;51.196;4.428;2022-09-16T01:52:40;8.18;;;1.25;;
43945;SDS011;29599;51.196;4.428;2022-09-16T01:55:14;3.85;;;1.02;;
43945;SDS011;29599;51.196;4.428;2022-09-16T01:58:00;5.95;;;1.33;;
43945;SDS011;29599;51.196;4.428;2022-09-16T02:00:34;5.25;;;1.00;;
43945;SDS011;29599;51.196;4.428;2022-09-16T02:03:03;9.10;;;1.77;;
43945;SDS011;29599;51.196;4.428;2022-09-16T02:05:43;4.53;;;1.17;;
43945;SDS011;29599;51.196;4.428;2022-09-16T02:08:25;5.15;;;1.05;;
43945;SDS011;29599;51.196;4.428;2022-09-16T02:10:58;10.00;;;1.20;;
43945;SDS011;29599;51.196;4.428;2022-09-16T02:13:41;3.78;;;0.70;;
43945;SDS011;29599;51.196;4.428;2022-09-16T02:16:19;5.95;;;0.90;;
43945;SDS011;29599;51.196;4.428;2022-09-16T02:19:06;5.40;;;1.00;;
43945;SDS011;29599;51.196;4.428;2022-09-16T02:21:36;3.40;;;0.75;;
43945;SDS011;29599;51.196;4.428;2022-09-16T02:24:06;9.30;;;0.95;;
43945;SDS011;29599;51.196;4.428;2022-09-16T02:26:36;4.57;;;1.20;;
43945;SDS011;29599;51.196;4.428;2022-09-16T02:31:38;8.02;;;1.20;;
43945;SDS011;29599;51.196;4.428;2022-09-16T02:34:06;10.30;;;1.13;;
43945;SDS011;29599;51.196;4.428;2022-09-16T02:36:36;2.38;;;0.63;;
43945;SDS011;29599;51.196;4.428;2022-09-16T02:39:08;6.03;;;1.00;;
43945;SDS011;29599;51.196;4.428;2022-09-16T02:41:37;6.38;;;1.13;;
43945;SDS011;29599;51.196;4.428;2022-09-16T02:44:04;6.60;;;1.10;;
43945;SDS011;29599;51.196;4.428;2022-09-16T02:49:23;5.30;;;1.02;;
43945;SDS011;29599;51.196;4.428;2022-09-16T02:51:59;4.78;;;1.00;;
43945;SDS011;29599;51.196;4.428;2022-09-16T02:57:04;7.53;;;1.70;;
43945;SDS011;29599;51.196;4.428;2022-09-16T02:59:31;8.95;;;0.90;;
43945;SDS011;29599;51.196;4.428;2022-09-16T03:01:57;4.20;;;1.02;;
43945;SDS011;29599;51.196;4.428;2022-09-16T03:04:24;8.27;;;1.48;;
43945;SDS011;29599;51.196;4.428;2022-09-16T03:06:50;5.05;;;1.02;;
43945;SDS011;29599;51.196;4.428;2022-09-16T03:09:16;4.68;;;1.00;;
43945;SDS011;29599;51.196;4.428;2022-09-16T03:17:37;5.82;;;1.08;;
43945;SDS011;29599;51.196;4.428;2022-09-16T03:23:38;7.93;;;0.93;;
43945;SDS011;29599;51.196;4.428;2022-09-16T03:26:44;3.70;;;0.73;;
43945;SDS011;29599;51.196;4.428;2022-09-16T03:29:15;4.72;;;0.55;;
43945;SDS011;29599;51.196;4.428;2022-09-16T03:36:58;3.63;;;0.70;;
43945;SDS011;29599;51.196;4.428;2022-09-16T03:39:29;48.28;;;16.02;;
43945;SDS011;29599;51.196;4.428;2022-09-16T03:41:59;102.38;;;47.65;;
43945;SDS011;29599;51.196;4.428;2022-09-16T03:44:32;180.95;;;90.00;;
43945;SDS011;29599;51.196;4.428;2022-09-16T03:47:01;100.97;;;46.33;;
43945;SDS011;29599;51.196;4.428;2022-09-16T03:49:27;45.13;;;19.80;;
43945;SDS011;29599;51.196;4.428;2022-09-16T03:51:54;19.95;;;8.20;;
43945;SDS011;29599;51.196;4.428;2022-09-16T03:54:20;8.23;;;4.13;;
43945;SDS011;29599;51.196;4.428;2022-09-16T03:56:46;19.20;;;8.85;;
43945;SDS011;29599;51.196;4.428;2022-09-16T03:59:11;14.20;;;6.47;;
43945;SDS011;29599;51.196;4.428;2022-09-16T04:01:37;3.22;;;0.80;;
43945;SDS011;29599;51.196;4.428;2022-09-16T04:04:03;10.68;;;5.47;;
43945;SDS011;29599;51.196;4.428;2022-09-16T04:06:29;5.20;;;2.22;;
43945;SDS011;29599;51.196;4.428;2022-09-16T04:08:55;4.72;;;1.63;;
43945;SDS011;29599;51.196;4.428;2022-09-16T04:11:22;6.05;;;1.52;;
43945;SDS011;29599;51.196;4.428;2022-09-16T04:13:48;3.00;;;0.88;;
43945;SDS011;29599;51.196;4.428;2022-09-16T04:16:17;2.33;;;0.60;;
43945;SDS011;29599;51.196;4.428;2022-09-16T04:18:45;9.50;;;1.17;;
43945;SDS011;29599;51.196;4.428;2022-09-16T04:21:11;1.73;;;0.90;;
43945;SDS011;29599;51.196;4.428;2022-09-16T04:23:37;4.60;;;0.82;;
43945;SDS011;29599;51.196;4.428;2022-09-16T04:26:03;5.13;;;1.25;;
43945;SDS011;29599;51.196;4.428;2022-09-16T04:28:30;4.95;;;1.15;;
43945;SDS011;29599;51.196;4.428;2022-09-16T04:31:00;6.07;;;0.75;;
43945;SDS011;29599;51.196;4.428;2022-09-16T04:33:31;3.58;;;0.68;;
43945;SDS011;29599;51.196;4.428;2022-09-16T04:36:02;3.42;;;0.57;;
43945;SDS011;29599;51.196;4.428;2022-09-16T04:38:29;4.90;;;0.98;;
43945;SDS011;29599;51.196;4.428;2022-09-16T04:41:01;4.85;;;1.08;;
43945;SDS011;29599;51.196;4.428;2022-09-16T04:43:32;2.20;;;0.65;;
43945;SDS011;29599;51.196;4.428;2022-09-16T04:45:58;8.45;;;0.88;;
43945;SDS011;29599;51.196;4.428;2022-09-16T04:48:23;3.13;;;0.73;;
43945;SDS011;29599;51.196;4.428;2022-09-16T04:50:50;8.02;;;1.17;;
43945;SDS011;29599;51.196;4.428;2022-09-16T04:53:16;3.63;;;0.55;;
43945;SDS011;29599;51.196;4.428;2022-09-16T04:55:43;2.50;;;0.70;;
43945;SDS011;29599;51.196;4.428;2022-09-16T04:58:09;3.35;;;0.90;;
43945;SDS011;29599;51.196;4.428;2022-09-16T05:00:34;4.07;;;0.88;;
43945;SDS011;29599;51.196;4.428;2022-09-16T05:03:00;6.22;;;1.10;;
43945;SDS011;29599;51.196;4.428;2022-09-16T05:05:26;7.30;;;1.33;;
43945;SDS011;29599;51.196;4.428;2022-09-16T05:07:51;4.18;;;0.85;;
43945;SDS011;29599;51.196;4.428;2022-09-16T05:10:17;5.53;;;1.30;;
43945;SDS011;29599;51.196;4.428;2022-09-16T05:12:43;4.82;;;0.82;;
43945;SDS011;29599;51.196;4.428;2022-09-16T05:15:08;3.75;;;0.85;;
43945;SDS011;29599;51.196;4.428;2022-09-16T05:17:34;7.53;;;0.88;;
43945;SDS011;29599;51.196;4.428;2022-09-16T05:19:59;8.85;;;1.10;;
43945;SDS011;29599;51.196;4.428;2022-09-16T05:22:25;7.10;;;1.10;;
43945;SDS011;29599;51.196;4.428;2022-09-16T05:24:51;6.28;;;1.13;;
43945;SDS011;29599;51.196;4.428;2022-09-16T05:27:16;5.20;;;1.13;;
43945;SDS011;29599;51.196;4.428;2022-09-16T05:29:42;4.60;;;1.05;;
43945;SDS011;29599;51.196;4.428;2022-09-16T05:32:08;4.93;;;1.42;;
43945;SDS011;29599;51.196;4.428;2022-09-16T05:34:33;6.32;;;1.38;;
43945;SDS011;29599;51.196;4.428;2022-09-16T05:37:00;3.78;;;1.08;;
43945;SDS011;29599;51.196;4.428;2022-09-16T05:39:26;13.85;;;1.63;;
43945;SDS011;29599;51.196;4.428;2022-09-16T05:41:53;6.20;;;1.45;;
43945;SDS011;29599;51.196;4.428;2022-09-16T05:44:20;8.15;;;1.63;;
43945;SDS011;29599;51.196;4.428;2022-09-16T05:46:46;5.25;;;1.42;;
43945;SDS011;29599;51.196;4.428;2022-09-16T05:49:12;4.07;;;0.82;;
43945;SDS011;29599;51.196;4.428;2022-09-16T05:51:38;5.78;;;0.98;;
43945;SDS011;29599;51.196;4.428;2022-09-16T05:54:06;3.65;;;0.95;;
43945;SDS011;29599;51.196;4.428;2022-09-16T05:56:31;5.78;;;1.45;;
43945;SDS011;29599;51.196;4.428;2022-09-16T05:58:58;5.68;;;1.25;;
43945;SDS011;29599;51.196;4.428;2022-09-16T06:01:25;4.05;;;1.30;;
43945;SDS011;29599;51.196;4.428;2022-09-16T06:03:53;3.17;;;0.98;;
43945;SDS011;29599;51.196;4.428;2022-09-16T06:06:26;5.82;;;1.17;;
43945;SDS011;29599;51.196;4.428;2022-09-16T06:08:58;6.07;;;1.35;;
43945;SDS011;29599;51.196;4.428;2022-09-16T06:11:25;7.43;;;1.27;;
43945;SDS011;29599;51.196;4.428;2022-09-16T06:13:56;3.60;;;1.00;;
43945;SDS011;29599;51.196;4.428;2022-09-16T06:16:24;3.95;;;0.80;;
43945;SDS011;29599;51.196;4.428;2022-09-16T06:18:51;11.70;;;1.50;;
43945;SDS011;29599;51.196;4.428;2022-09-16T06:21:18;9.18;;;1.42;;
43945;SDS011;29599;51.196;4.428;2022-09-16T06:23:43;5.25;;;1.55;;
43945;SDS011;29599;51.196;4.428;2022-09-16T06:26:13;5.18;;;1.10;;
43945;SDS011;29599;51.196;4.428;2022-09-16T06:28:40;6.05;;;1.48;;
43945;SDS011;29599;51.196;4.428;2022-09-16T06:31:10;5.13;;;1.30;;
43945;SDS011;29599;51.196;4.428;2022-09-16T06:33:38;7.22;;;1.88;;
43945;SDS011;29599;51.196;4.428;2022-09-16T06:36:05;3.50;;;1.50;;
43945;SDS011;29599;51.196;4.428;2022-09-16T06:38:34;8.85;;;1.63;;
43945;SDS011;29599;51.196;4.428;2022-09-16T06:41:01;6.57;;;1.52;;
43945;SDS011;29599;51.196;4.428;2022-09-16T06:43:28;7.00;;;1.52;;
43945;SDS011;29599;51.196;4.428;2022-09-16T06:45:55;9.40;;;2.05;;
43945;SDS011;29599;51.196;4.428;2022-09-16T06:48:26;6.15;;;1.27;;
43945;SDS011;29599;51.196;4.428;2022-09-16T06:53:25;6.82;;;1.50;;
43945;SDS011;29599;51.196;4.428;2022-09-16T06:55:50;9.70;;;1.30;;
43945;SDS011;29599;51.196;4.428;2022-09-16T06:58:16;6.47;;;1.50;;
43945;SDS011;29599;51.196;4.428;2022-09-16T07:00:42;4.88;;;1.08;;
43945;SDS011;29599;51.196;4.428;2022-09-16T07:03:07;4.03;;;1.23;;
43945;SDS011;29599;51.196;4.428;2022-09-16T07:05:33;4.70;;;1.10;;
43945;SDS011;29599;51.196;4.428;2022-09-16T07:07:59;5.80;;;1.30;;
43945;SDS011;29599;51.196;4.428;2022-09-16T07:10:24;7.53;;;1.38;;
43945;SDS011;29599;51.196;4.428;2022-09-16T07:12:50;6.70;;;1.33;;
43945;SDS011;29599;51.196;4.428;2022-09-16T07:15:16;6.50;;;1.48;;
43945;SDS011;29599;51.196;4.428;2022-09-16T07:17:41;10.95;;;2.17;;
43945;SDS011;29599;51.196;4.428;2022-09-16T07:20:07;6.95;;;1.63;;
43945;SDS011;29599;51.196;4.428;2022-09-16T07:22:33;9.60;;;1.65;;
43945;SDS011;29599;51.196;4.428;2022-09-16T07:24:58;9.20;;;2.03;;
43945;SDS011;29599;51.196;4.428;2022-09-16T07:27:24;12.15;;;2.83;;
43945;SDS011;29599;51.196;4.428;2022-09-16T07:29:49;8.75;;;1.70;;
43945;SDS011;29599;51.196;4.428;2022-09-16T07:32:15;9.35;;;1.50;;
43945;SDS011;29599;51.196;4.428;2022-09-16T07:34:41;7.68;;;1.60;;
43945;SDS011;29599;51.196;4.428;2022-09-16T07:37:06;5.47;;;1.30;;
43945;SDS011;29599;51.196;4.428;2022-09-16T07:39:32;9.52;;;1.52;;
43945;SDS011;29599;51.196;4.428;2022-09-16T07:41:57;3.65;;;1.20;;
43945;SDS011;29599;51.196;4.428;2022-09-16T07:44:24;8.48;;;1.40;;
43945;SDS011;29599;51.196;4.428;2022-09-16T07:46:50;7.57;;;1.73;;
43945;SDS011;29599;51.196;4.428;2022-09-16T07:49:15;5.18;;;1.33;;
43945;SDS011;29599;51.196;4.428;2022-09-16T07:51:41;7.05;;;1.38;;
43945;SDS011;29599;51.196;4.428;2022-09-16T07:54:08;5.68;;;1.40;;
43945;SDS011;29599;51.196;4.428;2022-09-16T07:56:37;5.63;;;1.77;;
43945;SDS011;29599;51.196;4.428;2022-09-16T07:59:05;7.38;;;1.48;;
43945;SDS011;29599;51.196;4.428;2022-09-16T08:01:35;6.13;;;1.55;;
43945;SDS011;29599;51.196;4.428;2022-09-16T08:04:01;12.48;;;1.67;;
43945;SDS011;29599;51.196;4.428;2022-09-16T08:06:28;8.48;;;1.38;;
43945;SDS011;29599;51.196;4.428;2022-09-16T08:08:57;7.65;;;1.73;;
43945;SDS011;29599;51.196;4.428;2022-09-16T08:11:24;10.68;;;1.63;;
43945;SDS011;29599;51.196;4.428;2022-09-16T08:13:51;9.77;;;2.10;;
43945;SDS011;29599;51.196;4.428;2022-09-16T08:16:18;15.35;;;2.60;;
43945;SDS011;29599;51.196;4.428;2022-09-16T08:18:46;10.68;;;2.15;;
43945;SDS011;29599;51.196;4.428;2022-09-16T08:21:15;7.07;;;1.58;;
43945;SDS011;29599;51.196;4.428;2022-09-16T08:23:42;6.90;;;1.55;;
43945;SDS011;29599;51.196;4.428;2022-09-16T08:26:08;7.93;;;1.15;;
43945;SDS011;29599;51.196;4.428;2022-09-16T08:28:36;5.68;;;1.50;;
43945;SDS011;29599;51.196;4.428;2022-09-16T08:31:03;4.63;;;0.90;;
43945;SDS011;29599;51.196;4.428;2022-09-16T08:33:29;9.25;;;1.70;;
43945;SDS011;29599;51.196;4.428;2022-09-16T08:38:24;6.15;;;1.20;;
43945;SDS011;29599;51.196;4.428;2022-09-16T08:40:50;8.23;;;1.55;;
43945;SDS011;29599;51.196;4.428;2022-09-16T08:43:24;3.58;;;0.80;;
43945;SDS011;29599;51.196;4.428;2022-09-16T08:46:05;7.85;;;1.25;;
43945;SDS011;29599;51.196;4.428;2022-09-16T08:51:17;7.55;;;0.93;;
43945;SDS011;29599;51.196;4.428;2022-09-16T08:56:28;10.05;;;1.40;;
43945;SDS011;29599;51.196;4.428;2022-09-16T08:58:59;13.65;;;1.10;;
43945;SDS011;29599;51.196;4.428;2022-09-16T09:01:28;13.27;;;1.20;;
43945;SDS011;29599;51.196;4.428;2022-09-16T09:04:13;10.07;;;1.83;;
43945;SDS011;29599;51.196;4.428;2022-09-16T09:12:23;11.73;;;1.80;;
43945;SDS011;29599;51.196;4.428;2022-09-16T09:15:26;10.70;;;1.70;;
43945;SDS011;29599;51.196;4.428;2022-09-16T09:18:30;5.03;;;1.23;;
43945;SDS011;29599;51.196;4.428;2022-09-16T09:26:34;5.18;;;1.10;;
43945;SDS011;29599;51.196;4.428;2022-09-16T09:29:17;7.95;;;1.25;;
43945;SDS011;29599;51.196;4.428;2022-09-16T09:40:38;5.18;;;1.65;;
43945;SDS011;29599;51.196;4.428;2022-09-16T09:43:10;5.28;;;1.55;;
43945;SDS011;29599;51.196;4.428;2022-09-16T09:45:44;4.78;;;0.80;;
43945;SDS011;29599;51.196;4.428;2022-09-16T09:48:19;2.83;;;1.02;;
43945;SDS011;29599;51.196;4.428;2022-09-16T09:50:48;2.20;;;0.85;;
43945;SDS011;29599;51.196;4.428;2022-09-16T09:55:59;5.95;;;0.88;;
43945;SDS011;29599;51.196;4.428;2022-09-16T10:01:18;3.35;;;0.77;;
43945;SDS011;29599;51.196;4.428;2022-09-16T10:03:44;5.68;;;0.68;;
43945;SDS011;29599;51.196;4.428;2022-09-16T10:06:12;4.72;;;0.77;;
43945;SDS011;29599;51.196;4.428;2022-09-16T10:08:49;5.20;;;0.93;;
43945;SDS011;29599;51.196;4.428;2022-09-16T10:11:17;4.63;;;0.63;;
43945;SDS011;29599;51.196;4.428;2022-09-16T10:13:49;4.28;;;1.23;;
43945;SDS011;29599;51.196;4.428;2022-09-16T10:16:21;7.03;;;1.52;;
43945;SDS011;29599;51.196;4.428;2022-09-16T10:18:55;3.92;;;1.15;;
43945;SDS011;29599;51.196;4.428;2022-09-16T10:21:36;3.35;;;1.20;;
43945;SDS011;29599;51.196;4.428;2022-09-16T10:24:23;12.02;;;2.38;;
43945;SDS011;29599;51.196;4.428;2022-09-16T10:26:53;6.95;;;1.10;;
43945;SDS011;29599;51.196;4.428;2022-09-16T10:29:19;4.63;;;1.05;;
43945;SDS011;29599;51.196;4.428;2022-09-16T10:31:44;6.65;;;1.35;;
43945;SDS011;29599;51.196;4.428;2022-09-16T10:36:56;5.40;;;1.55;;
43945;SDS011;29599;51.196;4.428;2022-09-16T10:39:49;14.85;;;3.00;;
43945;SDS011;29599;51.196;4.428;2022-09-16T10:42:20;6.35;;;1.40;;
43945;SDS011;29599;51.196;4.428;2022-09-16T10:44:49;6.03;;;1.60;;
43945;SDS011;29599;51.196;4.428;2022-09-16T10:47:19;6.30;;;1.40;;
43945;SDS011;29599;51.196;4.428;2022-09-16T10:49:50;5.25;;;1.23;;
43945;SDS011;29599;51.196;4.428;2022-09-16T10:52:24;6.57;;;1.10;;
43945;SDS011;29599;51.196;4.428;2022-09-16T10:54:53;5.10;;;1.10;;
43945;SDS011;29599;51.196;4.428;2022-09-16T10:57:29;5.63;;;0.90;;
43945;SDS011;29599;51.196;4.428;2022-09-16T11:13:37;7.38;;;1.38;;
43945;SDS011;29599;51.196;4.428;2022-09-16T11:17:02;6.40;;;1.30;;
43945;SDS011;29599;51.196;4.428;2022-09-16T11:19:15;5.38;;;1.15;;
43945;SDS011;29599;51.196;4.428;2022-09-16T11:30:07;5.68;;;1.30;;
43945;SDS011;29599;51.196;4.428;2022-09-16T11:35:22;9.32;;;1.33;;
43945;SDS011;29599;51.196;4.428;2022-09-16T11:40:43;11.10;;;1.60;;
43945;SDS011;29599;51.196;4.428;2022-09-16T11:46:06;6.55;;;1.27;;
43945;SDS011;29599;51.196;4.428;2022-09-16T11:48:58;2.95;;;0.90;;
43945;SDS011;29599;51.196;4.428;2022-09-16T11:52:00;3.78;;;0.90;;
43945;SDS011;29599;51.196;4.428;2022-09-16T11:57:19;5.13;;;1.38;;
43945;SDS011;29599;51.196;4.428;2022-09-16T12:10:49;4.82;;;0.82;;
43945;SDS011;29599;51.196;4.428;2022-09-16T12:13:24;5.72;;;0.75;;
43945;SDS011;29599;51.196;4.428;2022-09-16T12:15:53;5.10;;;0.75;;
43945;SDS011;29599;51.196;4.428;2022-09-16T12:18:26;5.70;;;1.25;;
43945;SDS011;29599;51.196;4.428;2022-09-16T12:23:47;4.97;;;1.10;;
43945;SDS011;29599;51.196;4.428;2022-09-16T12:26:19;5.22;;;1.13;;
43945;SDS011;29599;51.196;4.428;2022-09-16T12:34:00;4.18;;;1.08;;
43945;SDS011;29599;51.196;4.428;2022-09-16T12:36:48;6.90;;;1.10;;
43945;SDS011;29599;51.196;4.428;2022-09-16T12:39:21;4.32;;;0.80;;
43945;SDS011;29599;51.196;4.428;2022-09-16T12:42:11;3.03;;;1.05;;
43945;SDS011;29599;51.196;4.428;2022-09-16T12:45:12;5.88;;;2.45;;
43945;SDS011;29599;51.196;4.428;2022-09-16T12:47:59;4.25;;;1.13;;
43945;SDS011;29599;51.196;4.428;2022-09-16T12:59:31;6.22;;;1.92;;
43945;SDS011;29599;51.196;4.428;2022-09-16T13:02:23;4.53;;;1.85;;
43945;SDS011;29599;51.196;4.428;2022-09-16T13:04:54;5.63;;;1.30;;
43945;SDS011;29599;51.196;4.428;2022-09-16T13:07:32;6.00;;;1.25;;
43945;SDS011;29599;51.196;4.428;2022-09-16T13:10:03;7.28;;;1.60;;
43945;SDS011;29599;51.196;4.428;2022-09-16T13:12:32;6.28;;;1.13;;
43945;SDS011;29599;51.196;4.428;2022-09-16T13:15:00;4.15;;;0.98;;
43945;SDS011;29599;51.196;4.428;2022-09-16T13:17:38;3.55;;;0.90;;
43945;SDS011;29599;51.196;4.428;2022-09-16T13:20:15;13.90;;;0.95;;
43945;SDS011;29599;51.196;4.428;2022-09-16T13:25:28;1.52;;;0.57;;
43945;SDS011;29599;51.196;4.428;2022-09-16T13:28:22;0.73;;;0.40;;
43945;SDS011;29599;51.196;4.428;2022-09-16T13:30:50;4.97;;;0.60;;
43945;SDS011;29599;51.196;4.428;2022-09-16T13:35:43;2.95;;;0.75;;
43945;SDS011;29599;51.196;4.428;2022-09-16T13:40:38;4.32;;;0.90;;
43945;SDS011;29599;51.196;4.428;2022-09-16T13:43:15;7.05;;;0.75;;
43945;SDS011;29599;51.196;4.428;2022-09-16T13:45:44;5.38;;;0.88;;
43945;SDS011;29599;51.196;4.428;2022-09-16T13:50:51;13.15;;;0.90;;
43945;SDS011;29599;51.196;4.428;2022-09-16T13:53:35;4.10;;;0.93;;
43945;SDS011;29599;51.196;4.428;2022-09-16T13:56:07;2.33;;;0.80;;
43945;SDS011;29599;51.196;4.428;2022-09-16T14:05:13;4.65;;;0.80;;
43945;SDS011;29599;51.196;4.428;2022-09-16T14:08:18;4.40;;;1.08;;
43945;SDS011;29599;51.196;4.428;2022-09-16T14:10:55;3.55;;;0.70;;
43945;SDS011;29599;51.196;4.428;2022-09-16T14:13:37;1.38;;;0.60;;
43945;SDS011;29599;51.196;4.428;2022-09-16T14:16:14;4.57;;;0.63;;
43945;SDS011;29599;51.196;4.428;2022-09-16T14:19:02;2.83;;;0.70;;
43945;SDS011;29599;51.196;4.428;2022-09-16T14:24:36;9.90;;;1.25;;
43945;SDS011;29599;51.196;4.428;2022-09-16T14:27:16;3.97;;;0.77;;
43945;SDS011;29599;51.196;4.428;2022-09-16T14:29:57;3.35;;;0.70;;
43945;SDS011;29599;51.196;4.428;2022-09-16T14:32:32;2.22;;;0.47;;
43945;SDS011;29599;51.196;4.428;2022-09-16T14:35:07;2.67;;;0.60;;
43945;SDS011;29599;51.196;4.428;2022-09-16T14:37:45;2.30;;;0.77;;
43945;SDS011;29599;51.196;4.428;2022-09-16T14:40:14;2.42;;;0.73;;
43945;SDS011;29599;51.196;4.428;2022-09-16T14:42:50;4.80;;;1.13;;
43945;SDS011;29599;51.196;4.428;2022-09-16T14:45:26;2.42;;;0.90;;
43945;SDS011;29599;51.196;4.428;2022-09-16T14:47:53;3.35;;;0.90;;
43945;SDS011;29599;51.196;4.428;2022-09-16T14:50:21;2.70;;;0.50;;
43945;SDS011;29599;51.196;4.428;2022-09-16T14:53:26;3.70;;;0.95;;
43945;SDS011;29599;51.196;4.428;2022-09-16T14:56:03;6.57;;;1.20;;
43945;SDS011;29599;51.196;4.428;2022-09-16T14:58:29;8.65;;;0.85;;
43945;SDS011;29599;51.196;4.428;2022-09-16T15:01:07;5.10;;;1.25;;
43945;SDS011;29599;51.196;4.428;2022-09-16T15:06:08;3.60;;;1.17;;
43945;SDS011;29599;51.196;4.428;2022-09-16T15:08:42;3.40;;;0.82;;
43945;SDS011;29599;51.196;4.428;2022-09-16T15:11:19;2.97;;;0.80;;
43945;SDS011;29599;51.196;4.428;2022-09-16T15:13:47;6.75;;;0.95;;
43945;SDS011;29599;51.196;4.428;2022-09-16T15:16:14;5.05;;;1.08;;
43945;SDS011;29599;51.196;4.428;2022-09-16T15:19:04;3.33;;;0.57;;
43945;SDS011;29599;51.196;4.428;2022-09-16T15:21:33;2.03;;;0.77;;
43945;SDS011;29599;51.196;4.428;2022-09-16T15:24:03;8.43;;;1.27;;
43945;SDS011;29599;51.196;4.428;2022-09-16T15:29:04;5.13;;;1.17;;
43945;SDS011;29599;51.196;4.428;2022-09-16T15:31:38;7.18;;;1.33;;
43945;SDS011;29599;51.196;4.428;2022-09-16T15:36:43;7.70;;;1.00;;
43945;SDS011;29599;51.196;4.428;2022-09-16T15:42:10;5.32;;;1.15;;
43945;SDS011;29599;51.196;4.428;2022-09-16T15:44:42;3.53;;;1.10;;
43945;SDS011;29599;51.196;4.428;2022-09-16T15:52:33;7.82;;;1.30;;
43945;SDS011;29599;51.196;4.428;2022-09-16T15:55:16;7.85;;;1.10;;
43945;SDS011;29599;51.196;4.428;2022-09-16T15:58:01;5.10;;;1.05;;
43945;SDS011;29599;51.196;4.428;2022-09-16T16:03:36;3.63;;;1.02;;
43945;SDS011;29599;51.196;4.428;2022-09-16T16:06:08;6.47;;;1.05;;
43945;SDS011;29599;51.196;4.428;2022-09-16T16:08:36;3.95;;;0.90;;
43945;SDS011;29599;51.196;4.428;2022-09-16T16:11:14;6.05;;;0.95;;
43945;SDS011;29599;51.196;4.428;2022-09-16T16:13:41;4.63;;;1.02;;
43945;SDS011;29599;51.196;4.428;2022-09-16T16:16:07;5.55;;;1.10;;
43945;SDS011;29599;51.196;4.428;2022-09-16T16:18:35;7.22;;;1.35;;
43945;SDS011;29599;51.196;4.428;2022-09-16T16:21:09;5.47;;;1.50;;
43945;SDS011;29599;51.196;4.428;2022-09-16T16:23:37;3.70;;;1.33;;
43945;SDS011;29599;51.196;4.428;2022-09-16T16:26:03;6.88;;;1.13;;
43945;SDS011;29599;51.196;4.428;2022-09-16T16:28:30;12.48;;;1.35;;
43945;SDS011;29599;51.196;4.428;2022-09-16T16:33:42;4.40;;;1.13;;
43945;SDS011;29599;51.196;4.428;2022-09-16T16:36:10;5.38;;;1.13;;
43945;SDS011;29599;51.196;4.428;2022-09-16T16:38:36;4.85;;;0.90;;
43945;SDS011;29599;51.196;4.428;2022-09-16T16:41:02;3.45;;;1.38;;
43945;SDS011;29599;51.196;4.428;2022-09-16T16:43:28;9.30;;;1.35;;
43945;SDS011;29599;51.196;4.428;2022-09-16T16:45:57;4.63;;;1.67;;
43945;SDS011;29599;51.196;4.428;2022-09-16T17:02:07;10.20;;;2.20;;
43945;SDS011;29599;51.196;4.428;2022-09-16T17:04:35;2.35;;;1.25;;
43945;SDS011;29599;51.196;4.428;2022-09-16T17:07:01;6.30;;;1.75;;
43945;SDS011;29599;51.196;4.428;2022-09-16T17:09:28;13.07;;;2.00;;
43945;SDS011;29599;51.196;4.428;2022-09-16T17:11:58;8.73;;;2.00;;
43945;SDS011;29599;51.196;4.428;2022-09-16T17:14:25;9.57;;;2.42;;
43945;SDS011;29599;51.196;4.428;2022-09-16T17:16:53;4.83;;;1.87;;
43945;SDS011;29599;51.196;4.428;2022-09-16T17:19:21;7.75;;;2.05;;
43945;SDS011;29599;51.196;4.428;2022-09-16T17:21:48;7.95;;;1.85;;
43945;SDS011;29599;51.196;4.428;2022-09-16T17:24:14;8.35;;;2.22;;
43945;SDS011;29599;51.196;4.428;2022-09-16T17:26:41;16.02;;;2.67;;
43945;SDS011;29599;51.196;4.428;2022-09-16T17:29:08;11.18;;;2.20;;
43945;SDS011;29599;51.196;4.428;2022-09-16T17:31:34;10.50;;;2.90;;
43945;SDS011;29599;51.196;4.428;2022-09-16T17:34:04;12.30;;;2.83;;
43945;SDS011;29599;51.196;4.428;2022-09-16T17:36:33;7.45;;;2.25;;
43945;SDS011;29599;51.196;4.428;2022-09-16T17:39:06;10.23;;;3.03;;
43945;SDS011;29599;51.196;4.428;2022-09-16T17:41:35;8.48;;;2.10;;
43945;SDS011;29599;51.196;4.428;2022-09-16T17:44:05;10.05;;;2.30;;
43945;SDS011;29599;51.196;4.428;2022-09-16T17:46:32;6.50;;;2.22;;
43945;SDS011;29599;51.196;4.428;2022-09-16T17:49:02;7.57;;;3.00;;
43945;SDS011;29599;51.196;4.428;2022-09-16T17:51:31;5.97;;;1.70;;
43945;SDS011;29599;51.196;4.428;2022-09-16T17:53:58;9.95;;;2.28;;
43945;SDS011;29599;51.196;4.428;2022-09-16T17:56:25;7.47;;;2.25;;
43945;SDS011;29599;51.196;4.428;2022-09-16T17:58:51;6.78;;;1.50;;
43945;SDS011;29599;51.196;4.428;2022-09-16T18:01:18;7.80;;;2.10;;
43945;SDS011;29599;51.196;4.428;2022-09-16T18:03:46;9.30;;;2.60;;
43945;SDS011;29599;51.196;4.428;2022-09-16T18:06:24;5.72;;;2.00;;
43945;SDS011;29599;51.196;4.428;2022-09-16T18:08:55;4.05;;;1.90;;
43945;SDS011;29599;51.196;4.428;2022-09-16T18:11:23;6.13;;;2.17;;
43945;SDS011;29599;51.196;4.428;2022-09-16T18:13:52;6.78;;;1.90;;
43945;SDS011;29599;51.196;4.428;2022-09-16T18:16:19;9.63;;;1.88;;
43945;SDS011;29599;51.196;4.428;2022-09-16T18:18:48;6.10;;;1.80;;
43945;SDS011;29599;51.196;4.428;2022-09-16T18:21:15;6.55;;;2.38;;
43945;SDS011;29599;51.196;4.428;2022-09-16T18:23:46;4.28;;;1.90;;
43945;SDS011;29599;51.196;4.428;2022-09-16T18:26:15;9.35;;;1.88;;